createdAt,value
2022-12-28T00:00:37.049Z,3.15
2022-12-28T00:03:42.051Z,2.85
2022-12-28T00:06:47.555Z,3.17
2022-12-28T00:09:51.875Z,7.30
2022-12-28T00:12:56.529Z,10.38
2022-12-28T00:16:14.098Z,6.35
2022-12-28T00:19:18.567Z,4.63
2022-12-28T00:22:22.857Z,3.45
2022-12-28T00:25:27.187Z,3.83
2022-12-28T00:28:31.461Z,2.83
2022-12-28T00:31:36.354Z,2.88
2022-12-28T00:34:41.231Z,2.70
2022-12-28T00:37:45.852Z,3.08
2022-12-28T00:40:50.364Z,2.90
2022-12-28T00:43:54.837Z,3.47
2022-12-28T00:46:59.173Z,2.83
2022-12-28T00:50:04.380Z,2.50
2022-12-28T00:53:10.053Z,3.25
2022-12-28T00:56:18.382Z,3.40
2022-12-28T00:59:23.081Z,2.65
2022-12-28T01:02:27.730Z,2.65
2022-12-28T01:05:32.058Z,2.95
2022-12-28T01:08:38.682Z,2.88
2022-12-28T01:11:43.108Z,3.13
2022-12-28T01:14:47.505Z,3.58
2022-12-28T01:17:52.175Z,3.30
2022-12-28T01:20:57.118Z,2.85
2022-12-28T01:24:04.470Z,3.00
2022-12-28T01:27:09.629Z,3.58
2022-12-28T01:30:16.413Z,3.92
2022-12-28T01:33:21.151Z,3.72
2022-12-28T01:36:31.402Z,3.95
2022-12-28T01:39:41.789Z,3.63
2022-12-28T01:42:54.260Z,3.95
2022-12-28T01:46:01.258Z,3.58
2022-12-28T01:49:18.455Z,3.95
2022-12-28T01:52:48.002Z,3.95
2022-12-28T01:55:52.889Z,3.38
2022-12-28T01:58:58.108Z,3.53
2022-12-28T02:02:03.442Z,3.58
2022-12-28T02:05:08.756Z,3.60
2022-12-28T02:08:26.547Z,4.18
2022-12-28T02:11:31.977Z,4.75
2022-12-28T02:14:37.403Z,4.57
2022-12-28T02:17:41.696Z,3.53
2022-12-28T02:21:00.834Z,4.45
2022-12-28T02:24:31.021Z,3.97
2022-12-28T02:28:02.723Z,3.40
2022-12-28T02:31:18.006Z,4.28
2022-12-28T02:34:37.960Z,3.78
2022-12-28T02:37:53.820Z,4.18
2022-12-28T02:41:14.029Z,3.65
2022-12-28T02:44:38.898Z,3.85
2022-12-28T02:48:04.621Z,4.40
2022-12-28T02:51:55.685Z,3.17
2022-12-28T02:55:33.172Z,3.47
2022-12-28T02:59:06.866Z,4.57
2022-12-28T03:02:54.432Z,3.67
2022-12-28T03:06:32.406Z,4.00
2022-12-28T03:10:02.215Z,3.65
2022-12-28T03:13:37.260Z,4.03
2022-12-28T03:17:05.022Z,4.40
2022-12-28T03:20:36.711Z,4.00
2022-12-28T03:24:03.181Z,4.60
2022-12-28T03:27:31.673Z,4.43
2022-12-28T03:30:57.852Z,4.63
2022-12-28T03:34:09.777Z,5.85
2022-12-28T03:37:36.767Z,4.85
2022-12-28T03:40:51.509Z,4.28
2022-12-28T03:44:11.418Z,3.67
2022-12-28T03:47:17.265Z,5.03
2022-12-28T03:50:23.823Z,4.82
2022-12-28T03:53:47.987Z,3.78
2022-12-28T03:56:57.349Z,4.28
2022-12-28T04:00:09.466Z,4.60
2022-12-28T04:03:20.699Z,4.07
2022-12-28T04:06:26.824Z,4.65
2022-12-28T04:09:32.612Z,4.13
2022-12-28T04:12:37.591Z,4.50
2022-12-28T04:16:02.259Z,3.90
2022-12-28T04:19:07.872Z,4.53
2022-12-28T04:22:12.542Z,4.40
2022-12-28T04:25:16.961Z,4.47
2022-12-28T04:28:21.373Z,4.63
2022-12-28T04:31:44.921Z,4.40
2022-12-28T04:34:52.111Z,4.68
2022-12-28T04:37:57.169Z,4.80
2022-12-28T04:41:03.044Z,4.20
2022-12-28T04:44:07.754Z,4.57
2022-12-28T04:47:13.375Z,4.75
2022-12-28T04:50:17.630Z,4.25
2022-12-28T04:53:22.368Z,4.55
2022-12-28T04:56:27.575Z,4.15
2022-12-28T04:59:32.386Z,4.50
2022-12-28T05:02:36.864Z,4.85
2022-12-28T05:05:41.291Z,4.63
2022-12-28T05:08:46.739Z,4.90
2022-12-28T05:11:51.203Z,4.47
2022-12-28T05:14:55.540Z,4.13
2022-12-28T05:18:00.016Z,3.90
2022-12-28T05:21:23.711Z,4.75
2022-12-28T05:24:28.110Z,5.45
2022-12-28T05:27:32.753Z,4.63
2022-12-28T05:30:37.066Z,5.30
2022-12-28T05:33:42.253Z,4.78
2022-12-28T05:36:46.697Z,5.20
2022-12-28T05:39:51.036Z,5.15
2022-12-28T05:42:55.621Z,4.68
2022-12-28T05:46:05.846Z,4.63
2022-12-28T05:49:10.296Z,5.20
2022-12-28T05:52:14.938Z,5.05
2022-12-28T05:55:19.479Z,4.47
2022-12-28T05:58:23.726Z,5.03
2022-12-28T06:01:36.238Z,5.20
2022-12-28T06:04:41.115Z,5.20
2022-12-28T06:07:45.355Z,5.10
2022-12-28T06:10:49.938Z,5.20
2022-12-28T06:13:55.178Z,5.13
2022-12-28T06:16:59.705Z,5.25
2022-12-28T06:20:05.007Z,4.93
2022-12-28T06:23:09.602Z,4.72
2022-12-28T06:26:19.541Z,4.88
2022-12-28T06:29:24.273Z,4.50
2022-12-28T06:32:28.733Z,3.90
2022-12-28T06:35:33.265Z,3.60
2022-12-28T06:38:38.066Z,4.47
2022-12-28T06:41:43.369Z,4.10
2022-12-28T06:44:47.863Z,5.00
2022-12-28T06:47:52.897Z,4.55
2022-12-28T06:51:04.196Z,4.45
2022-12-28T06:54:09.391Z,4.65
2022-12-28T06:57:13.841Z,4.55
2022-12-28T07:00:18.574Z,4.75
2022-12-28T07:03:24.741Z,4.78
2022-12-28T07:06:33.623Z,4.32
2022-12-28T07:09:38.230Z,4.45
2022-12-28T07:12:42.950Z,4.03
2022-12-28T07:15:47.584Z,4.40
2022-12-28T07:18:52.498Z,4.25
2022-12-28T07:21:57.214Z,4.50
2022-12-28T07:25:01.699Z,4.88
2022-12-28T07:28:05.847Z,3.78
2022-12-28T07:31:18.462Z,4.30
2022-12-28T07:34:23.636Z,4.30
2022-12-28T07:37:28.210Z,4.32
2022-12-28T07:40:33.035Z,4.32
2022-12-28T07:43:37.782Z,4.18
2022-12-28T07:46:42.261Z,4.35
2022-12-28T07:49:46.802Z,4.40
2022-12-28T07:52:51.357Z,3.88
2022-12-28T07:56:00.272Z,4.07
2022-12-28T07:59:06.588Z,4.03
2022-12-28T08:02:11.387Z,3.85
2022-12-28T08:05:16.281Z,3.85
2022-12-28T08:08:21.467Z,4.55
2022-12-28T08:11:30.206Z,5.10
2022-12-28T08:14:34.684Z,4.82
2022-12-28T08:17:39.307Z,4.82
2022-12-28T08:20:43.950Z,4.10
2022-12-28T08:23:49.425Z,4.20
2022-12-28T08:26:54.245Z,4.18
2022-12-28T08:29:58.870Z,4.80
2022-12-28T08:33:03.581Z,4.35
2022-12-28T08:36:09.655Z,4.75
2022-12-28T08:39:14.637Z,4.85
2022-12-28T08:42:19.039Z,4.50
2022-12-28T08:45:23.616Z,5.65
2022-12-28T08:48:29.087Z,4.53
2022-12-28T08:51:41.483Z,3.80
2022-12-28T08:54:45.993Z,4.60
2022-12-28T08:57:50.192Z,4.68
2022-12-28T09:00:54.514Z,5.10
2022-12-28T09:04:00.901Z,4.43
2022-12-28T09:07:05.753Z,4.57
2022-12-28T09:10:10.332Z,4.47
2022-12-28T09:13:14.805Z,4.32
2022-12-28T09:16:26.140Z,3.90
2022-12-28T09:19:30.891Z,4.10
2022-12-28T09:22:35.463Z,4.20
2022-12-28T09:25:40.058Z,4.30
2022-12-28T09:28:51.098Z,3.72
2022-12-28T09:31:57.818Z,3.33
2022-12-28T09:35:02.439Z,2.90
2022-12-28T09:38:06.873Z,3.75
2022-12-28T09:41:43.993Z,3.78
2022-12-28T09:45:06.017Z,3.70
2022-12-28T09:48:15.889Z,4.40
2022-12-28T09:51:25.141Z,4.38
2022-12-28T09:54:29.455Z,4.40
2022-12-28T09:57:40.926Z,3.80
2022-12-28T10:00:54.075Z,4.82
2022-12-28T10:04:02.134Z,4.00
2022-12-28T10:07:11.743Z,4.18
2022-12-28T10:10:22.393Z,3.78
2022-12-28T10:17:00.607Z,4.72
2022-12-28T10:20:08.129Z,4.30
2022-12-28T10:23:19.309Z,4.03
2022-12-28T10:26:23.849Z,3.70
2022-12-28T10:29:31.372Z,3.42
2022-12-28T10:32:51.982Z,3.40
2022-12-28T10:35:56.916Z,3.50
2022-12-28T10:39:02.609Z,3.20
2022-12-28T10:42:29.754Z,3.50
2022-12-28T10:45:39.775Z,3.58
2022-12-28T10:48:56.569Z,3.38
2022-12-28T10:52:07.970Z,4.10
2022-12-28T10:55:33.254Z,3.42
2022-12-28T10:58:39.207Z,3.47
2022-12-28T11:01:44.186Z,3.95
2022-12-28T11:05:04.400Z,3.03
2022-12-28T11:08:16.635Z,3.15
2022-12-28T11:11:22.954Z,3.47
2022-12-28T11:14:36.387Z,2.65
2022-12-28T11:17:40.617Z,3.30
2022-12-28T11:20:51.326Z,2.78
2022-12-28T11:23:55.893Z,2.30
2022-12-28T11:27:00.504Z,2.33
2022-12-28T11:30:09.071Z,2.17
2022-12-28T11:33:51.648Z,2.50
2022-12-28T11:36:56.604Z,2.20
2022-12-28T11:40:00.878Z,2.00
2022-12-28T11:43:05.258Z,2.17
2022-12-28T11:46:21.779Z,1.90
2022-12-28T11:49:30.536Z,1.80
2022-12-28T11:52:46.773Z,1.63
2022-12-28T11:56:08.795Z,2.10
2022-12-28T11:59:34.373Z,2.50
2022-12-28T12:02:41.379Z,1.92
2022-12-28T12:05:51.820Z,2.40
2022-12-28T12:08:56.464Z,2.10
2022-12-28T12:12:24.377Z,2.10
2022-12-28T12:15:41.412Z,1.83
2022-12-28T12:18:59.094Z,2.17
2022-12-28T12:22:12.441Z,1.85
2022-12-28T12:25:44.823Z,2.00
2022-12-28T12:28:52.981Z,2.50
2022-12-28T12:32:06.410Z,2.40
2022-12-28T12:35:21.242Z,2.45
2022-12-28T12:39:03.207Z,2.50
2022-12-28T12:42:23.782Z,2.08
2022-12-28T12:45:48.129Z,2.40
2022-12-28T12:49:30.127Z,3.03
2022-12-28T12:52:53.102Z,2.70
2022-12-28T12:56:29.586Z,2.70
2022-12-28T13:00:00.166Z,2.72
2022-12-28T13:03:45.498Z,2.95
2022-12-28T13:06:59.005Z,2.72
2022-12-28T13:10:05.055Z,3.00
2022-12-28T13:13:28.567Z,3.08
2022-12-28T13:16:33.359Z,3.00
2022-12-28T13:19:37.804Z,3.20
2022-12-28T13:22:45.360Z,3.47
2022-12-28T13:25:53.680Z,3.70
2022-12-28T13:29:08.319Z,4.75
2022-12-28T13:32:36.036Z,4.28
2022-12-28T13:35:42.416Z,5.03
2022-12-28T13:38:46.872Z,5.13
2022-12-28T13:41:58.505Z,4.80
2022-12-28T13:45:07.189Z,4.00
2022-12-28T13:48:11.990Z,4.00
2022-12-28T13:51:19.508Z,3.25
2022-12-28T13:54:25.158Z,3.28
2022-12-28T13:57:51.284Z,4.07
2022-12-28T14:01:00.804Z,4.10
2022-12-28T14:04:50.662Z,3.88
2022-12-28T14:07:37.008Z,3.95
2022-12-28T14:10:42.657Z,4.03
2022-12-28T14:13:47.888Z,4.25
2022-12-28T14:16:52.532Z,3.50
2022-12-28T14:19:58.412Z,3.60
2022-12-28T14:23:26.496Z,3.78
2022-12-28T14:26:30.993Z,2.85
2022-12-28T14:29:35.742Z,3.33
2022-12-28T14:32:43.200Z,2.70
2022-12-28T14:36:00.609Z,3.08
2022-12-28T14:39:06.636Z,3.30
2022-12-28T14:42:24.922Z,3.42
2022-12-28T14:46:04.909Z,3.13
2022-12-28T14:49:29.773Z,3.47
2022-12-28T14:52:43.192Z,3.00
2022-12-28T14:56:11.419Z,3.00
2022-12-28T14:59:29.356Z,3.50
2022-12-28T15:02:33.803Z,2.50
2022-12-28T15:05:51.898Z,2.53
2022-12-28T15:09:01.308Z,2.88
2022-12-28T15:12:21.415Z,2.80
2022-12-28T15:15:25.722Z,3.05
2022-12-28T15:18:30.960Z,2.80
2022-12-28T15:21:35.536Z,2.58
2022-12-28T15:24:41.755Z,2.53
2022-12-28T15:27:51.280Z,3.05
2022-12-28T15:30:56.441Z,2.67
2022-12-28T15:34:00.961Z,2.55
2022-12-28T15:37:05.336Z,2.47
2022-12-28T15:40:10.833Z,2.42
2022-12-28T15:43:15.324Z,2.70
2022-12-28T15:46:20.219Z,2.55
2022-12-28T15:49:24.831Z,3.05
2022-12-28T15:52:31.241Z,3.13
2022-12-28T15:55:36.874Z,3.33
2022-12-28T15:58:41.064Z,3.10
2022-12-28T16:01:46.219Z,2.60
2022-12-28T16:04:51.006Z,2.60
2022-12-28T16:07:55.913Z,2.80
2022-12-28T16:11:18.657Z,2.20
2022-12-28T16:14:23.678Z,2.67
2022-12-28T16:17:28.574Z,2.97
2022-12-28T16:20:32.934Z,2.80
2022-12-28T16:23:40.495Z,2.33
2022-12-28T16:26:45.443Z,2.80
2022-12-28T16:29:55.309Z,2.80
2022-12-28T16:33:03.079Z,3.00
2022-12-28T16:36:16.710Z,2.83
2022-12-28T16:39:21.597Z,3.30
2022-12-28T16:42:26.728Z,2.80
2022-12-28T16:45:35.789Z,2.78
2022-12-28T16:48:40.702Z,3.10
2022-12-28T16:51:47.383Z,2.75
2022-12-28T16:54:52.332Z,2.92
2022-12-28T16:57:57.395Z,2.97
2022-12-28T17:01:10.859Z,2.90
2022-12-28T17:04:15.354Z,2.78
2022-12-28T17:07:19.537Z,2.97
2022-12-28T17:10:24.269Z,2.40
2022-12-28T17:13:29.233Z,2.85
2022-12-28T17:16:34.276Z,2.67
2022-12-28T17:19:39.116Z,2.20
2022-12-28T17:22:43.784Z,2.90
2022-12-28T17:25:54.976Z,3.00
2022-12-28T17:28:59.685Z,2.65
2022-12-28T17:32:06.046Z,3.10
2022-12-28T17:35:10.674Z,2.92
2022-12-28T17:38:15.213Z,2.53
2022-12-28T17:41:27.676Z,2.88
2022-12-28T17:44:32.997Z,3.20
2022-12-28T17:47:37.783Z,3.70
2022-12-28T17:50:47.046Z,3.45
2022-12-28T17:53:54.244Z,3.28
2022-12-28T17:56:59.203Z,3.45
2022-12-28T18:00:05.249Z,3.40
2022-12-28T18:03:17.136Z,3.58
2022-12-28T18:06:22.025Z,3.13
2022-12-28T18:09:28.146Z,3.42
2022-12-28T18:12:32.727Z,2.42
2022-12-28T18:15:37.230Z,2.78
2022-12-28T18:18:42.594Z,3.50
2022-12-28T18:21:47.337Z,2.67
2022-12-28T18:24:53.548Z,2.70
2022-12-28T18:27:58.591Z,3.40
2022-12-28T18:31:05.585Z,2.72
2022-12-28T18:34:10.752Z,3.47
2022-12-28T18:37:15.411Z,3.10
2022-12-28T18:40:20.062Z,2.88
2022-12-28T18:43:25.611Z,2.78
2022-12-28T18:46:30.446Z,3.28
2022-12-28T18:49:35.177Z,2.83
2022-12-28T18:52:40.652Z,2.92
2022-12-28T18:55:45.756Z,2.40
2022-12-28T18:58:54.100Z,2.75
2022-12-28T19:02:08.953Z,2.90
2022-12-28T19:05:15.413Z,2.83
2022-12-28T19:08:20.301Z,2.90
2022-12-28T19:11:24.603Z,3.08
2022-12-28T19:14:29.048Z,2.83
2022-12-28T19:17:33.448Z,2.50
2022-12-28T19:20:38.327Z,2.65
2022-12-28T19:23:43.111Z,2.35
2022-12-28T19:26:47.747Z,2.30
2022-12-28T19:29:52.432Z,2.83
2022-12-28T19:32:56.774Z,2.80
2022-12-28T19:36:01.464Z,2.85
2022-12-28T19:39:06.360Z,3.40
2022-12-28T19:42:11.024Z,2.92
2022-12-28T19:45:15.548Z,3.03
2022-12-28T19:48:20.075Z,2.85
2022-12-28T19:51:30.629Z,3.80
2022-12-28T19:54:37.621Z,3.22
2022-12-28T19:57:42.434Z,3.63
2022-12-28T20:00:46.789Z,3.55
2022-12-28T20:03:51.842Z,3.40
2022-12-28T20:06:56.910Z,3.25
2022-12-28T20:10:01.464Z,3.65
2022-12-28T20:13:05.749Z,3.90
2022-12-28T20:16:11.086Z,3.95
2022-12-28T20:19:15.973Z,3.42
2022-12-28T20:22:20.621Z,3.42
2022-12-28T20:25:25.195Z,3.47
2022-12-28T20:28:29.949Z,3.60
2022-12-28T20:31:34.826Z,3.47
2022-12-28T20:34:39.782Z,3.80
2022-12-28T20:37:44.619Z,3.83
2022-12-28T20:40:49.745Z,3.22
2022-12-28T20:43:54.521Z,3.30
2022-12-28T20:47:01.641Z,3.40
2022-12-28T20:50:07.243Z,3.40
2022-12-28T20:53:11.790Z,3.25
2022-12-28T20:56:17.156Z,3.25
2022-12-28T20:59:21.571Z,3.72
2022-12-28T21:02:26.615Z,3.28
2022-12-28T21:05:31.629Z,3.63
2022-12-28T21:08:37.018Z,3.72
2022-12-28T21:11:41.712Z,3.38
2022-12-28T21:14:45.972Z,3.78
2022-12-28T21:17:50.392Z,3.75
2022-12-28T21:20:59.990Z,4.18
2022-12-28T21:24:04.866Z,3.80
2022-12-28T21:27:09.623Z,3.60
2022-12-28T21:30:14.185Z,4.10
2022-12-28T21:33:18.856Z,3.85
2022-12-28T21:36:23.947Z,3.83
2022-12-28T21:39:28.563Z,3.92
2022-12-28T21:42:35.016Z,3.60
2022-12-28T21:45:39.829Z,4.05
2022-12-28T21:48:44.475Z,4.80
2022-12-28T21:51:50.109Z,3.97
2022-12-28T21:54:54.539Z,3.50
2022-12-28T21:57:59.887Z,3.83
2022-12-28T22:01:23.083Z,3.83
2022-12-28T22:04:47.353Z,3.38
2022-12-28T22:08:12.503Z,3.78
2022-12-28T22:11:36.522Z,3.28
2022-12-28T22:14:41.302Z,4.20
2022-12-28T22:17:46.116Z,3.67
2022-12-28T22:20:50.876Z,3.50
2022-12-28T22:23:55.868Z,3.60
2022-12-28T22:27:00.305Z,3.83
2022-12-28T22:30:05.871Z,4.00
2022-12-28T22:33:10.389Z,3.83
2022-12-28T22:36:18.891Z,3.88
2022-12-28T22:39:23.620Z,3.80
2022-12-28T22:42:29.236Z,3.63
2022-12-28T22:45:33.750Z,3.97
2022-12-28T22:48:38.632Z,3.53
2022-12-28T22:51:43.400Z,2.80
2022-12-28T22:54:47.884Z,3.92
2022-12-28T22:57:52.467Z,3.65
2022-12-28T23:01:09.910Z,3.90
2022-12-28T23:04:16.108Z,3.85
2022-12-28T23:07:20.730Z,3.65
2022-12-28T23:10:24.971Z,3.83
2022-12-28T23:13:33.101Z,3.45
2022-12-28T23:16:37.741Z,3.63
2022-12-28T23:20:05.922Z,3.67
2022-12-28T23:23:28.771Z,3.80
2022-12-28T23:26:51.460Z,3.60
2022-12-28T23:29:55.690Z,3.90
2022-12-28T23:33:00.410Z,3.22
2022-12-28T23:36:05.624Z,4.38
2022-12-28T23:39:10.280Z,3.38
2022-12-28T23:42:14.757Z,3.15
2022-12-28T23:45:19.942Z,3.60
2022-12-28T23:48:24.315Z,3.20
2022-12-28T23:51:28.671Z,3.58
2022-12-28T23:54:33.080Z,3.53
2022-12-28T23:57:38.184Z,3.47
